createdAt,value
2019-05-05T00:00:32.205Z,7.31
2019-05-05T00:01:34.297Z,7.33
2019-05-05T00:02:34.146Z,7.14
2019-05-05T00:03:34.179Z,7.02
2019-05-05T00:04:31.866Z,7.20
2019-05-05T00:05:31.776Z,7.20
2019-05-05T00:06:31.692Z,7.18
2019-05-05T00:07:31.608Z,7.23
2019-05-05T00:08:31.520Z,7.20
2019-05-05T00:09:31.439Z,7.21
2019-05-05T00:10:31.351Z,7.17
2019-05-05T00:11:31.263Z,7.13
2019-05-05T00:12:31.179Z,7.17
2019-05-05T00:13:31.096Z,7.17
2019-05-05T00:14:31.009Z,7.24
2019-05-05T00:15:30.925Z,7.21
2019-05-05T00:16:30.843Z,7.15
2019-05-05T00:17:30.753Z,7.15
2019-05-05T00:18:30.707Z,7.17
2019-05-05T00:19:33.282Z,7.10
2019-05-05T00:20:30.493Z,7.07
2019-05-05T00:21:30.410Z,7.14
2019-05-05T00:22:30.326Z,7.18
2019-05-05T00:23:30.238Z,7.23
2019-05-05T00:24:30.153Z,7.20
2019-05-05T00:25:30.072Z,7.21
2019-05-05T00:26:29.987Z,7.17
2019-05-05T00:27:29.902Z,7.33
2019-05-05T00:28:29.812Z,7.32
2019-05-05T00:29:29.727Z,7.33
2019-05-05T00:30:29.642Z,7.32
2019-05-05T00:31:29.556Z,7.29
2019-05-05T00:32:29.469Z,7.40
2019-05-05T00:33:29.387Z,7.39
2019-05-05T00:34:29.300Z,7.38
2019-05-05T00:35:29.214Z,7.40
2019-05-05T00:36:29.134Z,7.35
2019-05-05T00:37:29.043Z,7.47
2019-05-05T00:38:28.959Z,7.40
2019-05-05T00:39:28.874Z,7.32
2019-05-05T00:40:28.790Z,7.33
2019-05-05T00:41:28.704Z,7.38
2019-05-05T00:42:28.617Z,7.47
2019-05-05T00:43:28.532Z,7.45
2019-05-05T00:44:28.454Z,7.43
2019-05-05T00:45:28.362Z,7.35
2019-05-05T00:46:28.278Z,7.29
2019-05-05T00:47:28.193Z,7.29
2019-05-05T00:48:28.103Z,7.35
2019-05-05T00:49:28.021Z,7.24
2019-05-05T00:50:27.935Z,7.25
2019-05-05T00:51:27.851Z,7.31
2019-05-05T00:52:27.762Z,7.42
2019-05-05T00:53:27.680Z,7.38
2019-05-05T00:54:27.596Z,7.32
2019-05-05T00:55:27.515Z,7.36
2019-05-05T00:56:27.425Z,7.35
2019-05-05T00:57:27.338Z,7.33
2019-05-05T00:58:27.257Z,7.33
2019-05-05T00:59:27.171Z,7.45
2019-05-05T01:00:27.082Z,7.24
2019-05-05T01:01:26.996Z,7.35
2019-05-05T01:02:26.912Z,7.35
2019-05-05T01:03:26.829Z,7.31
2019-05-05T01:04:26.741Z,7.33
2019-05-05T01:05:26.657Z,7.33
2019-05-05T01:06:26.570Z,7.25
2019-05-05T01:07:26.486Z,7.29
2019-05-05T01:08:26.402Z,7.33
2019-05-05T01:09:26.317Z,7.29
2019-05-05T01:10:26.234Z,7.29
2019-05-05T01:11:26.160Z,7.20
2019-05-05T01:12:26.060Z,7.24
2019-05-05T01:13:25.973Z,7.28
2019-05-05T01:14:25.890Z,7.29
2019-05-05T01:15:25.806Z,7.33
2019-05-05T01:16:25.719Z,7.32
2019-05-05T01:17:25.633Z,7.32
2019-05-05T01:18:25.548Z,7.32
2019-05-05T01:19:25.463Z,7.33
2019-05-05T01:20:25.377Z,7.35
2019-05-05T01:21:25.299Z,7.33
2019-05-05T01:22:25.209Z,7.45
2019-05-05T01:23:25.121Z,7.33
2019-05-05T01:24:25.029Z,7.38
2019-05-05T01:25:25.453Z,7.33
2019-05-05T01:26:25.016Z,7.38
2019-05-05T01:27:25.370Z,7.42
2019-05-05T01:28:25.056Z,7.33
2019-05-05T01:29:25.256Z,7.38
2019-05-05T01:30:24.534Z,7.39
2019-05-05T01:31:25.213Z,7.38
2019-05-05T01:32:24.711Z,7.39
2019-05-05T01:33:25.045Z,7.36
2019-05-05T01:34:24.461Z,7.33
2019-05-05T01:35:24.912Z,7.38
2019-05-05T01:36:24.282Z,7.33
2019-05-05T01:37:25.452Z,7.36
2019-05-05T01:38:24.702Z,7.40
2019-05-05T01:39:25.246Z,7.42
2019-05-05T01:40:24.751Z,7.38
2019-05-05T01:41:25.279Z,7.31
2019-05-05T01:42:24.814Z,7.33
2019-05-05T01:43:25.268Z,7.31
2019-05-05T01:44:24.690Z,7.38
2019-05-05T01:45:24.208Z,7.31
2019-05-05T01:46:24.550Z,7.28
2019-05-05T01:47:25.279Z,7.29
2019-05-05T01:48:24.796Z,7.29
2019-05-05T01:49:25.098Z,7.36
2019-05-05T01:50:24.702Z,7.39
2019-05-05T01:51:24.667Z,7.36
2019-05-05T01:52:22.651Z,7.38
2019-05-05T01:53:24.391Z,7.33
2019-05-05T01:54:22.482Z,7.38
2019-05-05T01:55:22.398Z,7.38
2019-05-05T01:56:24.469Z,7.39
2019-05-05T01:57:22.230Z,7.20
2019-05-05T01:58:22.143Z,7.20
2019-05-05T01:59:22.059Z,7.24
2019-05-05T02:00:21.975Z,7.18
2019-05-05T02:01:21.889Z,7.18
2019-05-05T02:02:21.803Z,7.15
2019-05-05T02:03:21.717Z,7.15
2019-05-05T02:04:21.630Z,7.21
2019-05-05T02:05:21.548Z,7.06
2019-05-05T02:06:21.462Z,7.13
2019-05-05T02:07:21.377Z,7.03
2019-05-05T02:08:21.288Z,7.24
2019-05-05T02:09:21.204Z,7.13
2019-05-05T02:10:21.117Z,7.13
2019-05-05T02:11:21.035Z,7.18
2019-05-05T02:12:20.949Z,7.18
2019-05-05T02:13:20.863Z,7.17
2019-05-05T02:14:20.776Z,7.17
2019-05-05T02:15:20.694Z,7.18
2019-05-05T02:16:20.609Z,7.18
2019-05-05T02:17:20.530Z,7.17
2019-05-05T02:18:20.436Z,7.25
2019-05-05T02:19:20.352Z,7.15
2019-05-05T02:20:28.739Z,7.18
2019-05-05T02:21:20.182Z,7.17
2019-05-05T02:22:20.100Z,7.20
2019-05-05T02:23:20.011Z,7.17
2019-05-05T02:24:19.923Z,7.14
2019-05-05T02:25:19.838Z,7.11
2019-05-05T02:26:19.760Z,7.24
2019-05-05T02:27:19.932Z,7.24
2019-05-05T02:28:19.583Z,7.13
2019-05-05T02:29:19.496Z,7.17
2019-05-05T02:30:19.413Z,7.18
2019-05-05T02:31:19.328Z,7.18
2019-05-05T02:32:19.243Z,7.15
2019-05-05T02:33:19.154Z,7.14
2019-05-05T02:34:19.093Z,7.13
2019-05-05T02:35:18.986Z,6.99
2019-05-05T02:36:18.902Z,6.99
2019-05-05T02:37:18.816Z,6.87
2019-05-05T02:38:18.732Z,6.84
2019-05-05T02:39:18.644Z,6.82
2019-05-05T02:40:18.560Z,6.69
2019-05-05T02:41:18.476Z,6.70
2019-05-05T02:42:18.390Z,6.69
2019-05-05T02:43:18.305Z,6.72
2019-05-05T02:44:18.222Z,6.75
2019-05-05T02:45:18.135Z,6.82
2019-05-05T02:46:18.048Z,6.87
2019-05-05T02:47:17.971Z,6.81
2019-05-05T02:48:17.878Z,6.87
2019-05-05T02:49:17.790Z,6.81
2019-05-05T02:50:17.710Z,6.89
2019-05-05T02:51:17.629Z,6.93
2019-05-05T02:52:17.540Z,6.96
2019-05-05T02:53:17.449Z,6.97
2019-05-05T02:54:17.368Z,6.84
2019-05-05T02:55:17.275Z,6.96
2019-05-05T02:56:17.192Z,6.89
2019-05-05T02:57:17.105Z,6.81
2019-05-05T02:58:17.022Z,6.92
2019-05-05T02:59:16.936Z,6.82
2019-05-05T03:00:16.847Z,6.89
2019-05-05T03:01:16.763Z,6.82
2019-05-05T03:02:16.675Z,6.87
2019-05-05T03:03:16.592Z,6.88
2019-05-05T03:04:16.507Z,6.84
2019-05-05T03:05:16.419Z,6.79
2019-05-05T03:06:16.337Z,6.69
2019-05-05T03:07:16.251Z,6.70
2019-05-05T03:08:16.164Z,6.69
2019-05-05T03:09:16.078Z,6.67
2019-05-05T03:10:15.993Z,6.79
2019-05-05T03:11:15.910Z,6.69
2019-05-05T03:12:15.820Z,6.67
2019-05-05T03:13:15.734Z,6.74
2019-05-05T03:14:15.648Z,6.75
2019-05-05T03:15:15.564Z,6.70
2019-05-05T03:16:15.478Z,6.69
2019-05-05T03:17:15.389Z,6.63
2019-05-05T03:18:15.311Z,6.62
2019-05-05T03:19:15.221Z,6.57
2019-05-05T03:20:15.133Z,6.54
2019-05-05T03:21:15.051Z,6.64
2019-05-05T03:22:14.965Z,6.57
2019-05-05T03:23:14.880Z,6.57
2019-05-05T03:24:14.791Z,6.62
2019-05-05T03:25:14.706Z,6.62
2019-05-05T03:26:14.620Z,6.64
2019-05-05T03:27:14.532Z,6.60
2019-05-05T03:28:14.445Z,6.57
2019-05-05T03:29:14.362Z,6.41
2019-05-05T03:30:15.461Z,6.56
2019-05-05T03:31:16.062Z,6.48
2019-05-05T03:32:16.134Z,6.60
2019-05-05T03:33:16.040Z,6.52
2019-05-05T03:34:16.382Z,6.52
2019-05-05T03:35:13.849Z,6.49
2019-05-05T03:36:14.079Z,6.48
2019-05-05T03:37:14.591Z,6.39
2019-05-05T03:38:14.202Z,6.59
2019-05-05T03:39:14.392Z,6.52
2019-05-05T03:40:14.810Z,6.49
2019-05-05T03:41:13.628Z,6.52
2019-05-05T03:42:13.969Z,6.51
2019-05-05T03:43:14.523Z,6.52
2019-05-05T03:44:14.098Z,6.49
2019-05-05T03:45:14.536Z,6.48
2019-05-05T03:46:13.591Z,6.54
2019-05-05T03:47:13.988Z,6.45
2019-05-05T03:48:13.612Z,6.67
2019-05-05T03:49:14.026Z,6.59
2019-05-05T03:50:14.421Z,6.57
2019-05-05T03:51:18.933Z,6.60
2019-05-05T03:52:13.882Z,6.67
2019-05-05T03:53:14.019Z,6.70
2019-05-05T03:54:14.446Z,6.64
2019-05-05T03:55:13.814Z,6.70
2019-05-05T03:56:13.966Z,6.64
2019-05-05T03:57:13.947Z,6.75
2019-05-05T03:58:11.868Z,6.70
2019-05-05T03:59:13.876Z,6.74
2019-05-05T04:00:11.697Z,6.77
2019-05-05T04:01:11.607Z,6.74
2019-05-05T04:02:11.521Z,6.75
2019-05-05T04:03:11.438Z,6.88
2019-05-05T04:04:11.363Z,6.87
2019-05-05T04:05:11.270Z,6.82
2019-05-05T04:06:11.184Z,6.74
2019-05-05T04:07:11.098Z,6.75
2019-05-05T04:08:11.012Z,6.77
2019-05-05T04:09:10.923Z,6.77
2019-05-05T04:10:10.837Z,6.84
2019-05-05T04:11:10.753Z,6.84
2019-05-05T04:12:10.665Z,6.89
2019-05-05T04:13:10.582Z,6.89
2019-05-05T04:14:10.497Z,6.93
2019-05-05T04:15:10.413Z,7.00
2019-05-05T04:16:10.322Z,6.97
2019-05-05T04:17:10.241Z,6.93
2019-05-05T04:18:10.169Z,6.99
2019-05-05T04:19:10.070Z,7.02
2019-05-05T04:20:09.985Z,6.95
2019-05-05T04:21:09.898Z,7.06
2019-05-05T04:22:09.812Z,6.99
2019-05-05T04:23:09.728Z,6.99
2019-05-05T04:24:09.645Z,6.97
2019-05-05T04:25:09.556Z,6.96
2019-05-05T04:26:09.472Z,6.96
2019-05-05T04:27:09.387Z,6.89
2019-05-05T04:28:09.301Z,6.95
2019-05-05T04:29:09.217Z,6.92
2019-05-05T04:30:09.134Z,6.97
2019-05-05T04:31:09.042Z,6.95
2019-05-05T04:32:08.959Z,7.02
2019-05-05T04:33:08.871Z,6.93
2019-05-05T04:34:08.788Z,6.97
2019-05-05T04:35:08.703Z,7.03
2019-05-05T04:36:08.615Z,7.03
2019-05-05T04:37:08.532Z,6.99
2019-05-05T04:38:08.444Z,6.99
2019-05-05T04:39:08.361Z,7.05
2019-05-05T04:40:08.278Z,7.02
2019-05-05T04:41:08.191Z,7.02
2019-05-05T04:42:08.103Z,6.99
2019-05-05T04:43:08.021Z,7.00
2019-05-05T04:44:07.932Z,6.97
2019-05-05T04:45:07.851Z,6.99
2019-05-05T04:46:07.765Z,7.00
2019-05-05T04:47:07.678Z,7.00
2019-05-05T04:48:07.592Z,7.07
2019-05-05T04:49:07.507Z,7.03
2019-05-05T04:50:07.424Z,7.05
2019-05-05T04:51:07.340Z,7.07
2019-05-05T04:52:07.253Z,6.97
2019-05-05T04:53:07.163Z,6.99
2019-05-05T04:54:07.086Z,6.99
2019-05-05T04:55:07.000Z,7.02
2019-05-05T04:56:06.910Z,7.07
2019-05-05T04:57:06.826Z,6.99
2019-05-05T04:58:06.740Z,7.00
2019-05-05T04:59:06.660Z,7.05
2019-05-05T05:00:06.571Z,7.07
2019-05-05T05:01:06.485Z,7.05
2019-05-05T05:02:06.401Z,7.05
2019-05-05T05:03:06.315Z,7.21
2019-05-05T05:04:06.230Z,7.23
2019-05-05T05:05:06.150Z,7.05
2019-05-05T05:06:06.065Z,7.15
2019-05-05T05:07:05.975Z,7.13
2019-05-05T05:08:05.890Z,7.18
2019-05-05T05:09:05.805Z,7.05
2019-05-05T05:10:05.717Z,7.06
2019-05-05T05:11:05.634Z,7.05
2019-05-05T05:12:05.546Z,7.02
2019-05-05T05:13:05.464Z,7.02
2019-05-05T05:14:05.380Z,6.89
2019-05-05T05:15:05.294Z,6.97
2019-05-05T05:16:05.210Z,6.99
2019-05-05T05:17:05.126Z,7.03
2019-05-05T05:18:05.041Z,7.07
2019-05-05T05:19:04.953Z,7.00
2019-05-05T05:20:04.871Z,6.89
2019-05-05T05:21:04.783Z,6.93
2019-05-05T05:22:05.088Z,6.89
2019-05-05T05:23:04.614Z,7.00
2019-05-05T05:24:04.529Z,7.00
2019-05-05T05:25:04.588Z,6.97
2019-05-05T05:26:05.022Z,6.99
2019-05-05T05:27:04.990Z,7.03
2019-05-05T05:28:04.390Z,7.03
2019-05-05T05:29:04.640Z,7.00
2019-05-05T05:30:04.679Z,6.99
2019-05-05T05:31:04.087Z,7.07
2019-05-05T05:32:04.305Z,7.06
2019-05-05T05:33:04.339Z,7.05
2019-05-05T05:34:04.382Z,7.02
2019-05-05T05:35:03.816Z,6.97
2019-05-05T05:36:04.123Z,6.97
2019-05-05T05:37:04.240Z,7.02
2019-05-05T05:38:04.708Z,7.05
2019-05-05T05:39:03.507Z,7.05
2019-05-05T05:40:03.926Z,7.06
2019-05-05T05:41:04.250Z,6.99
2019-05-05T05:42:04.558Z,7.02
2019-05-05T05:43:04.702Z,7.05
2019-05-05T05:44:03.560Z,7.02
2019-05-05T05:45:04.079Z,7.07
2019-05-05T05:46:04.385Z,7.00
2019-05-05T05:47:03.585Z,7.10
2019-05-05T05:48:04.101Z,7.05
2019-05-05T05:49:04.422Z,7.10
2019-05-05T05:50:04.030Z,7.11
2019-05-05T05:51:04.089Z,7.11
2019-05-05T05:52:13.357Z,7.03
2019-05-05T05:53:02.061Z,7.03
2019-05-05T05:54:03.754Z,7.03
2019-05-05T05:55:03.949Z,7.05
2019-05-05T05:56:01.847Z,7.07
2019-05-05T05:57:01.714Z,7.05
2019-05-05T05:58:01.632Z,7.03
2019-05-05T05:59:03.522Z,6.92
2019-05-05T06:00:01.468Z,6.87
2019-05-05T06:01:01.380Z,6.87
2019-05-05T06:02:09.902Z,6.87
2019-05-05T06:03:01.210Z,6.85
2019-05-05T06:04:01.124Z,6.87
2019-05-05T06:05:01.039Z,6.92
2019-05-05T06:06:00.955Z,6.96
2019-05-05T06:07:00.872Z,6.93
2019-05-05T06:08:00.785Z,6.93
2019-05-05T06:09:00.699Z,6.97
2019-05-05T06:10:00.614Z,6.89
2019-05-05T06:11:00.530Z,6.99
2019-05-05T06:12:00.444Z,7.13
2019-05-05T06:13:00.360Z,7.05
2019-05-05T06:14:00.274Z,7.00
2019-05-05T06:15:00.190Z,7.15
2019-05-05T06:16:00.106Z,7.21
2019-05-05T06:17:00.023Z,7.21
2019-05-05T06:17:59.934Z,7.33
2019-05-05T06:18:59.851Z,7.33
2019-05-05T06:19:59.772Z,7.33
2019-05-05T06:20:59.680Z,7.28
2019-05-05T06:21:59.596Z,7.38
2019-05-05T06:22:59.509Z,7.35
2019-05-05T06:23:59.423Z,7.38
2019-05-05T06:24:59.340Z,7.47
2019-05-05T06:25:59.262Z,7.57
2019-05-05T06:26:59.175Z,7.60
2019-05-05T06:27:59.094Z,7.66
2019-05-05T06:28:59.004Z,7.70
2019-05-05T06:29:58.919Z,7.63
2019-05-05T06:30:58.834Z,7.70
2019-05-05T06:31:58.746Z,7.58
2019-05-05T06:32:58.665Z,7.70
2019-05-05T06:33:58.581Z,7.73
2019-05-05T06:34:58.496Z,7.69
2019-05-05T06:35:58.412Z,7.69
2019-05-05T06:36:58.327Z,7.82
2019-05-05T06:37:58.244Z,7.80
2019-05-05T06:38:58.165Z,7.80
2019-05-05T06:39:58.074Z,7.79
2019-05-05T06:40:57.989Z,7.82
2019-05-05T06:41:57.905Z,7.79
2019-05-05T06:42:57.828Z,7.85
2019-05-05T06:43:57.735Z,7.82
2019-05-05T06:44:57.648Z,7.82
2019-05-05T06:45:57.567Z,7.79
2019-05-05T06:46:57.490Z,7.73
2019-05-05T06:47:57.399Z,7.82
2019-05-05T06:48:57.315Z,7.75
2019-05-05T06:49:57.234Z,7.67
2019-05-05T06:50:57.146Z,7.82
2019-05-05T06:51:57.061Z,7.83
2019-05-05T06:52:56.978Z,7.77
2019-05-05T06:53:56.894Z,7.79
2019-05-05T06:54:56.812Z,7.80
2019-05-05T06:55:56.727Z,7.85
2019-05-05T06:56:56.645Z,7.80
2019-05-05T06:57:56.557Z,7.85
2019-05-05T06:58:56.491Z,7.79
2019-05-05T06:59:56.385Z,7.83
2019-05-05T07:00:56.302Z,7.88
2019-05-05T07:01:56.214Z,7.91
2019-05-05T07:02:56.140Z,7.93
2019-05-05T07:03:56.053Z,7.93
2019-05-05T07:04:55.966Z,7.93
2019-05-05T07:05:55.881Z,8.05
2019-05-05T07:06:57.178Z,7.95
2019-05-05T07:07:55.715Z,7.98
2019-05-05T07:08:55.631Z,8.03
2019-05-05T07:09:55.546Z,8.08
2019-05-05T07:10:55.462Z,8.12
2019-05-05T07:11:55.377Z,8.16
2019-05-05T07:12:55.292Z,8.19
2019-05-05T07:13:55.211Z,8.13
2019-05-05T07:14:55.126Z,8.15
2019-05-05T07:15:55.040Z,8.19
2019-05-05T07:16:54.957Z,8.13
2019-05-05T07:17:54.869Z,8.20
2019-05-05T07:18:54.786Z,8.19
2019-05-05T07:19:54.700Z,8.28
2019-05-05T07:20:54.652Z,8.18
2019-05-05T07:21:54.536Z,8.13
2019-05-05T07:23:01.357Z,8.20
2019-05-05T07:23:54.367Z,8.19
2019-05-05T07:24:54.380Z,8.20
2019-05-05T07:25:54.932Z,8.18
2019-05-05T07:26:54.342Z,8.12
2019-05-05T07:27:54.674Z,8.10
2019-05-05T07:28:54.281Z,8.16
2019-05-05T07:29:54.245Z,8.13
2019-05-05T07:30:54.771Z,8.15
2019-05-05T07:31:54.562Z,8.13
2019-05-05T07:32:53.802Z,8.18
2019-05-05T07:33:54.409Z,8.24
2019-05-05T07:34:54.630Z,8.19
2019-05-05T07:36:00.215Z,8.19
2019-05-05T07:36:54.878Z,8.19
2019-05-05T07:37:53.830Z,8.27
2019-05-05T07:38:54.747Z,8.23
2019-05-05T07:39:54.015Z,8.28
2019-05-05T07:40:54.508Z,8.31
2019-05-05T07:41:54.163Z,8.31
2019-05-05T07:42:54.004Z,8.28
2019-05-05T07:43:54.236Z,8.49
2019-05-05T07:44:54.552Z,8.48
2019-05-05T07:45:54.004Z,8.45
2019-05-05T07:46:54.373Z,8.49
2019-05-05T07:47:53.949Z,8.48
2019-05-05T07:48:54.347Z,8.53
2019-05-05T07:49:53.517Z,8.53
2019-05-05T07:50:59.820Z,8.61
2019-05-05T07:51:52.036Z,8.63
2019-05-05T07:52:51.938Z,8.61
2019-05-05T07:53:51.856Z,8.63
2019-05-05T07:54:51.773Z,8.70
2019-05-05T07:55:51.691Z,8.85
2019-05-05T07:56:53.645Z,8.76
2019-05-05T07:57:53.649Z,8.85
2019-05-05T08:00:24.057Z,8.91
2019-05-05T08:01:24.499Z,8.99
2019-05-05T08:02:23.776Z,8.95
2019-05-05T08:03:23.704Z,9.11
2019-05-05T08:04:24.266Z,9.00
2019-05-05T08:05:24.626Z,9.00
2019-05-05T08:06:23.739Z,9.10
2019-05-05T08:07:24.030Z,8.99
2019-05-05T08:08:24.407Z,9.06
2019-05-05T08:09:24.810Z,9.10
2019-05-05T08:10:24.106Z,9.08
2019-05-05T08:11:23.851Z,9.00
2019-05-05T08:12:22.409Z,9.11
2019-05-05T08:13:24.186Z,9.06
2019-05-05T08:14:24.366Z,9.08
2019-05-05T08:15:23.774Z,9.03
2019-05-05T08:16:24.147Z,9.11
2019-05-05T08:19:08.569Z,8.97
2019-05-05T08:20:07.483Z,8.97
2019-05-05T08:22:14.294Z,8.99
2019-05-05T08:23:28.613Z,9.03
2019-05-05T08:25:34.441Z,9.10
2019-05-05T08:26:20.899Z,9.10
2019-05-05T08:28:27.762Z,9.02
2019-05-05T08:29:27.666Z,9.10
2019-05-05T08:30:27.606Z,9.06
2019-05-05T08:31:27.933Z,9.10
2019-05-05T08:32:27.404Z,9.11
2019-05-05T08:33:27.348Z,9.19
2019-05-05T08:34:27.241Z,9.22
2019-05-05T08:35:27.156Z,9.22
2019-05-05T08:36:27.084Z,9.29
2019-05-05T08:37:26.992Z,9.31
2019-05-05T08:38:26.913Z,9.26
2019-05-05T08:39:26.834Z,9.26
2019-05-05T08:40:26.746Z,9.32
2019-05-05T08:41:26.662Z,9.39
2019-05-05T08:42:26.584Z,9.37
2019-05-05T08:43:26.504Z,9.34
2019-05-05T08:44:26.421Z,9.40
2019-05-05T08:45:26.799Z,9.34
2019-05-05T08:46:26.254Z,9.37
2019-05-05T08:47:28.189Z,9.36
2019-05-05T08:48:26.326Z,9.43
2019-05-05T08:49:26.007Z,9.31
2019-05-05T08:50:27.085Z,9.29
2019-05-05T08:51:25.845Z,9.31
2019-05-05T08:52:25.759Z,9.29
2019-05-05T08:53:25.677Z,9.28
2019-05-05T08:54:25.594Z,9.34
2019-05-05T08:55:28.350Z,9.28
2019-05-05T08:56:25.433Z,9.29
2019-05-05T08:57:25.346Z,9.28
2019-05-05T08:58:25.273Z,9.26
2019-05-05T09:01:10.796Z,9.39
2019-05-05T09:02:10.713Z,9.41
2019-05-05T09:06:07.723Z,9.41
2019-05-05T09:07:08.459Z,9.40
2019-05-05T09:11:05.428Z,9.31
2019-05-05T09:11:59.793Z,9.34
2019-05-05T09:14:08.753Z,9.25
2019-05-05T09:15:08.519Z,9.19
2019-05-05T09:17:13.844Z,9.10
2019-05-05T09:18:14.235Z,9.13
2019-05-05T09:20:20.562Z,9.16
2019-05-05T09:21:20.468Z,9.19
2019-05-05T09:23:25.800Z,9.16
2019-05-05T09:24:25.699Z,9.10
2019-05-05T09:26:18.926Z,9.11
2019-05-05T09:27:18.841Z,9.11
2019-05-05T09:29:24.264Z,9.10
2019-05-05T09:30:24.595Z,9.21
2019-05-05T09:32:27.346Z,9.28
2019-05-05T09:33:27.255Z,9.28
2019-05-05T09:35:31.561Z,9.28
2019-05-05T09:36:31.465Z,9.31
2019-05-05T09:38:35.771Z,9.32
2019-05-05T09:39:35.683Z,9.40
2019-05-05T09:41:40.010Z,9.37
2019-05-05T09:42:39.897Z,9.39
2019-05-05T09:44:44.202Z,9.34
2019-05-05T09:45:44.355Z,9.36
2019-05-05T09:47:48.426Z,9.36
2019-05-05T09:48:48.321Z,9.41
2019-05-05T09:50:54.076Z,9.40
2019-05-05T09:51:54.327Z,9.29
2019-05-05T09:54:10.266Z,9.37
2019-05-05T09:54:56.719Z,9.39
2019-05-05T09:56:49.963Z,9.41
2019-05-05T09:57:49.876Z,9.36
2019-05-05T09:59:54.314Z,9.34
2019-05-05T10:00:54.678Z,9.39
2019-05-05T10:02:58.700Z,9.39
2019-05-05T10:03:58.304Z,9.39
2019-05-05T10:06:04.680Z,9.31
2019-05-05T10:07:04.425Z,9.22
2019-05-05T10:09:06.828Z,9.40
2019-05-05T10:10:06.724Z,9.39
2019-05-05T10:12:11.011Z,9.48
2019-05-05T10:13:10.931Z,9.47
2019-05-05T10:15:15.232Z,9.55
2019-05-05T10:16:15.135Z,9.61
2019-05-05T10:18:19.454Z,9.66
2019-05-05T10:19:19.344Z,9.72
2019-05-05T10:21:24.636Z,9.66
2019-05-05T10:22:23.936Z,9.73
2019-05-05T10:24:31.012Z,9.73
2019-05-05T10:25:27.767Z,9.74
2019-05-05T10:27:44.607Z,9.74
2019-05-05T10:28:33.943Z,9.79
2019-05-05T10:30:36.321Z,9.73
2019-05-05T10:31:36.225Z,9.76
2019-05-05T10:33:43.190Z,9.82
2019-05-05T10:34:43.969Z,9.77
2019-05-05T10:35:43.767Z,9.84
2019-05-05T10:36:44.253Z,9.80
2019-05-05T10:37:43.863Z,9.79
2019-05-05T10:38:44.464Z,9.86
2019-05-05T10:39:44.015Z,9.82
2019-05-05T10:40:44.413Z,9.80
2019-05-05T10:41:44.156Z,9.82
2019-05-05T10:42:44.200Z,9.82
2019-05-05T10:43:43.709Z,9.76
2019-05-05T10:44:42.131Z,9.77
2019-05-05T10:45:43.906Z,9.82
2019-05-05T10:46:41.966Z,9.83
2019-05-05T10:47:43.952Z,9.84
2019-05-05T10:48:41.802Z,9.82
2019-05-05T10:49:44.006Z,9.86
2019-05-05T10:50:41.700Z,9.79
2019-05-05T10:51:43.819Z,9.82
2019-05-05T10:52:50.131Z,9.80
2019-05-05T10:54:45.885Z,9.77
2019-05-05T10:55:45.786Z,9.79
2019-05-05T10:57:51.074Z,9.69
2019-05-05T10:58:50.985Z,9.73
2019-05-05T11:00:55.284Z,9.68
2019-05-05T11:01:55.185Z,9.72
2019-05-05T11:03:48.453Z,9.62
2019-05-05T11:04:48.324Z,9.64
2019-05-05T11:06:54.235Z,9.62
2019-05-05T11:07:53.758Z,9.47
2019-05-05T11:09:56.826Z,9.47
2019-05-05T11:10:56.737Z,9.50
2019-05-05T11:13:00.566Z,9.48
2019-05-05T11:14:00.478Z,9.51
2019-05-05T11:16:04.781Z,9.54
2019-05-05T11:17:04.683Z,9.46
2019-05-05T11:19:08.498Z,9.50
2019-05-05T11:20:08.404Z,9.65
2019-05-05T11:22:14.497Z,9.76
2019-05-05T11:23:14.734Z,9.91
2019-05-05T11:25:16.920Z,10.04
2019-05-05T11:26:16.831Z,10.09
2019-05-05T11:27:16.753Z,10.10
2019-05-05T11:28:16.671Z,10.20
2019-05-05T11:29:16.592Z,10.25
2019-05-05T11:30:16.507Z,10.33
2019-05-05T11:31:16.426Z,10.31
2019-05-05T11:32:16.344Z,10.28
2019-05-05T11:33:16.264Z,10.31
2019-05-05T11:34:16.180Z,10.37
2019-05-05T11:35:16.102Z,10.33
2019-05-05T11:36:16.023Z,10.28
2019-05-05T11:37:15.940Z,10.22
2019-05-05T11:38:15.860Z,10.07
2019-05-05T11:39:15.781Z,10.07
2019-05-05T11:40:15.700Z,10.01
2019-05-05T11:41:15.619Z,9.95
2019-05-05T11:42:15.543Z,9.82
2019-05-05T11:43:15.461Z,9.64
2019-05-05T11:44:15.378Z,9.69
2019-05-05T11:45:15.296Z,9.66
2019-05-05T11:46:15.212Z,9.62
2019-05-05T11:47:15.131Z,9.61
2019-05-05T11:48:15.048Z,9.64
2019-05-05T11:49:14.971Z,9.69
2019-05-05T11:50:14.889Z,9.73
2019-05-05T11:51:15.215Z,9.68
2019-05-05T11:52:14.722Z,9.62
2019-05-05T11:53:14.692Z,9.62
2019-05-05T11:54:14.557Z,9.62
2019-05-05T11:55:14.960Z,9.66
2019-05-05T11:56:14.600Z,9.62
2019-05-05T11:57:14.315Z,9.51
2019-05-05T11:58:14.498Z,9.62
2019-05-05T11:59:14.529Z,9.64
2019-05-05T12:00:14.237Z,9.66
2019-05-05T12:01:14.081Z,9.62
2019-05-05T12:02:14.127Z,9.65
2019-05-05T12:03:14.500Z,9.76
2019-05-05T12:04:14.533Z,9.69
2019-05-05T12:05:14.143Z,9.65
2019-05-05T12:06:14.719Z,9.80
2019-05-05T12:07:14.672Z,9.73
2019-05-05T12:08:14.596Z,9.76
2019-05-05T12:09:14.012Z,9.79
2019-05-05T12:10:13.244Z,9.76
2019-05-05T12:11:15.130Z,9.82
2019-05-05T12:12:14.263Z,9.73
2019-05-05T12:13:14.765Z,9.72
2019-05-05T12:14:14.307Z,9.83
2019-05-05T12:15:13.409Z,9.83
2019-05-05T12:16:13.693Z,9.86
2019-05-05T12:17:13.926Z,9.99
2019-05-05T12:18:14.395Z,9.99
2019-05-05T12:19:13.780Z,10.05
2019-05-05T12:20:13.617Z,10.05
2019-05-05T12:21:13.967Z,10.10
2019-05-05T12:22:12.261Z,10.19
2019-05-05T12:23:12.180Z,10.37
2019-05-05T12:24:14.204Z,10.41
2019-05-05T12:25:23.391Z,10.40
2019-05-05T12:26:13.736Z,10.56
2019-05-05T12:27:14.013Z,10.72
2019-05-05T12:28:13.698Z,11.00
2019-05-05T12:29:11.688Z,11.29
2019-05-05T12:30:11.607Z,11.44
2019-05-05T12:31:11.528Z,12.02
2019-05-05T12:32:12.987Z,12.35
2019-05-05T12:33:11.372Z,12.68
2019-05-05T12:34:11.292Z,12.93
2019-05-05T12:35:11.220Z,13.46
2019-05-05T12:36:11.143Z,13.78
2019-05-05T12:37:11.072Z,14.08
2019-05-05T12:38:10.992Z,14.40
2019-05-05T12:39:10.919Z,14.32
2019-05-05T12:40:10.850Z,14.53
2019-05-05T12:41:10.777Z,14.73
2019-05-05T12:42:10.704Z,14.94
2019-05-05T12:43:10.630Z,15.14
2019-05-05T12:44:10.565Z,15.19
2019-05-05T12:45:10.497Z,15.46
2019-05-05T12:46:10.426Z,15.68
2019-05-05T12:47:10.357Z,15.91
2019-05-05T12:48:10.289Z,16.10
2019-05-05T12:49:10.220Z,16.23
2019-05-05T12:50:10.151Z,16.28
2019-05-05T12:51:10.083Z,16.23
2019-05-05T12:52:10.019Z,15.95
2019-05-05T12:53:09.952Z,16.12
2019-05-05T12:54:09.884Z,16.02
2019-05-05T12:55:09.821Z,16.17
2019-05-05T12:56:09.752Z,16.02
2019-05-05T12:57:09.684Z,15.80
2019-05-05T12:58:09.621Z,15.59
2019-05-05T12:59:09.550Z,15.25
2019-05-05T13:00:09.483Z,15.02
2019-05-05T13:01:09.418Z,14.77
2019-05-05T13:02:09.346Z,14.63
2019-05-05T13:03:09.275Z,14.30
2019-05-05T13:04:09.210Z,13.96
2019-05-05T13:05:09.138Z,13.90
2019-05-05T13:06:09.068Z,13.85
2019-05-05T13:07:08.999Z,13.85
2019-05-05T13:08:08.929Z,14.17
2019-05-05T13:09:08.855Z,13.90
2019-05-05T13:10:08.785Z,13.78
2019-05-05T13:11:08.716Z,13.71
2019-05-05T13:12:08.645Z,13.52
2019-05-05T13:13:08.569Z,13.31
2019-05-05T13:14:08.497Z,13.22
2019-05-05T13:15:08.430Z,13.13
2019-05-05T13:16:08.353Z,12.94
2019-05-05T13:17:08.281Z,12.82
2019-05-05T13:18:08.206Z,12.61
2019-05-05T13:19:08.134Z,12.55
2019-05-05T13:20:08.060Z,12.47
2019-05-05T13:21:07.983Z,12.31
2019-05-05T13:22:07.908Z,12.35
2019-05-05T13:23:07.835Z,12.24
2019-05-05T13:24:07.753Z,12.17
2019-05-05T13:25:07.684Z,12.12
2019-05-05T13:26:07.601Z,12.07
2019-05-05T13:27:10.049Z,12.06
2019-05-05T13:28:07.456Z,11.91
2019-05-05T13:29:07.378Z,11.95
2019-05-05T13:30:07.297Z,11.86
2019-05-05T13:31:07.219Z,11.91
2019-05-05T13:32:07.142Z,11.81
2019-05-05T13:33:07.063Z,11.80
2019-05-05T13:34:06.986Z,11.84
2019-05-05T13:35:06.907Z,11.81
2019-05-05T13:36:06.835Z,11.72
2019-05-05T13:37:06.754Z,11.70
2019-05-05T13:38:06.674Z,11.68
2019-05-05T13:39:06.593Z,11.62
2019-05-05T13:40:06.519Z,11.68
2019-05-05T13:41:06.442Z,11.54
2019-05-05T13:42:06.356Z,11.54
2019-05-05T13:43:06.278Z,11.44
2019-05-05T13:44:06.201Z,11.50
2019-05-05T13:45:06.122Z,11.48
2019-05-05T13:46:06.042Z,11.48
2019-05-05T13:47:05.964Z,11.52
2019-05-05T13:48:05.884Z,11.45
2019-05-05T13:49:05.806Z,11.44
2019-05-05T13:50:05.729Z,11.45
2019-05-05T13:51:05.651Z,11.45
2019-05-05T13:52:05.569Z,11.59
2019-05-05T13:53:05.486Z,11.60
2019-05-05T13:54:05.407Z,11.66
2019-05-05T13:55:05.331Z,11.75
2019-05-05T13:56:11.730Z,11.95
2019-05-05T13:57:05.168Z,12.03
2019-05-05T13:58:05.091Z,12.27
2019-05-05T13:59:05.013Z,12.50
2019-05-05T14:00:04.937Z,12.67
2019-05-05T14:01:04.863Z,12.75
2019-05-05T14:02:04.779Z,12.85
2019-05-05T14:03:04.699Z,12.85
2019-05-05T14:04:04.694Z,12.91
2019-05-05T14:05:04.674Z,12.94
2019-05-05T14:06:04.791Z,13.03
2019-05-05T14:07:04.398Z,13.03
2019-05-05T14:08:04.401Z,12.94